Time;durP1;ratioP1;P1;durP2;ratioP2;P2;SDS_P1;SDS_P2;PMS_P1;PMS_P2;Temp;Humidity;BMP_temperature;BMP_pressure;BME280_temperature;BME280_humidity;BME280_pressure;Samples;Min_cycle;Max_cycle;Signal;HPM_P1;HPM_P2
2022/06/24 00:00:18;;;;;;;12.07;2.17;;;44.70;24.50;;;;;;4955476;28;20033;-69
2022/06/24 00:02:49;;;;;;;14.18;3.03;;;44.60;24.70;;;;;;4972343;28;20150;-68
2022/06/24 00:05:15;;;;;;;12.27;2.30;;;44.30;24.50;;;;;;4954715;28;20030;-68
2022/06/24 00:07:50;;;;;;;12.95;2.40;;;44.40;24.60;;;;;;4971069;28;20023;-70
2022/06/24 00:10:19;;;;;;;8.63;2.00;;;44.30;24.50;;;;;;4955614;28;20405;-69
2022/06/24 00:12:47;;;;;;;14.95;2.67;;;44.30;24.90;;;;;;4974004;28;20030;-69
2022/06/24 00:15:14;;;;;;;13.25;2.55;;;44.20;24.90;;;;;;4971039;28;20027;-69
2022/06/24 00:17:41;;;;;;;11.02;2.45;;;44.30;24.90;;;;;;4972492;28;20149;-68
2022/06/24 00:20:09;;;;;;;8.85;2.03;;;44.20;25.00;;;;;;4971461;28;20114;-67
2022/06/24 00:22:47;;;;;;;9.07;1.80;;;44.10;24.50;;;;;;4970913;28;20393;-68
2022/06/24 00:25:24;;;;;;;14.13;2.03;;;44.10;24.90;;;;;;4954778;28;20177;-66
2022/06/24 00:28:04;;;;;;;10.15;2.08;;;43.90;24.90;;;;;;4970160;28;20401;-68
2022/06/24 00:30:37;;;;;;;11.82;2.20;;;43.80;25.40;;;;;;4973501;28;20540;-67
2022/06/24 00:33:14;;;;;;;7.53;1.92;;;43.80;25.10;;;;;;4971616;28;20030;-68
2022/06/24 00:35:43;;;;;;;14.05;2.25;;;43.70;25.20;;;;;;4970040;28;20074;-68
2022/06/24 00:38:37;;;;;;;12.88;2.00;;;43.70;24.90;;;;;;4970541;28;20027;-69
2022/06/24 00:41:14;;;;;;;11.50;2.47;;;43.60;25.10;;;;;;4970521;28;21432;-68
2022/06/24 00:43:42;;;;;;;12.10;2.60;;;43.60;25.10;;;;;;4969853;28;20374;-68
2022/06/24 00:46:24;;;;;;;7.13;1.85;;;43.50;25.30;;;;;;4970102;28;20044;-68
2022/06/24 00:48:55;;;;;;;9.65;2.30;;;43.40;25.80;;;;;;4969692;28;20059;-68
2022/06/24 00:51:23;;;;;;;13.40;2.40;;;43.40;25.40;;;;;;4954437;28;20034;-69
2022/06/24 00:53:55;;;;;;;9.10;2.10;;;43.20;25.20;;;;;;4970682;28;20037;-68
2022/06/24 00:56:25;;;;;;;10.27;2.00;;;43.20;25.50;;;;;;4968680;28;20054;-68
2022/06/24 00:58:59;;;;;;;10.98;2.30;;;43.10;25.60;;;;;;4970669;28;20118;-68
2022/06/24 01:01:37;;;;;;;10.43;2.35;;;43.10;25.70;;;;;;4954096;28;20485;-69
2022/06/24 01:04:07;;;;;;;11.40;2.22;;;43.00;25.50;;;;;;4969314;28;20046;-69
2022/06/24 01:06:36;;;;;;;10.10;1.80;;;42.90;25.90;;;;;;4980005;28;20015;-67
2022/06/24 01:09:03;;;;;;;11.77;2.42;;;42.80;25.90;;;;;;4975867;28;20189;-68
2022/06/24 01:11:32;;;;;;;6.80;2.05;;;42.70;26.00;;;;;;4970019;28;20027;-69
2022/06/24 01:13:59;;;;;;;8.32;2.28;;;42.70;26.10;;;;;;4970724;28;20382;-68
2022/06/24 01:16:27;;;;;;;16.75;2.45;;;42.50;26.30;;;;;;4969545;28;20512;-66
2022/06/24 01:18:56;;;;;;;11.10;2.22;;;42.40;26.40;;;;;;4969891;28;20048;-68
2022/06/24 01:21:37;;;;;;;14.77;2.70;;;42.50;25.60;;;;;;4954590;28;20166;-66
2022/06/24 01:24:12;;;;;;;15.23;2.90;;;42.50;25.00;;;;;;4969755;28;20065;-68
2022/06/24 01:26:40;;;;;;;14.38;2.70;;;42.40;25.20;;;;;;4968789;28;20025;-64
2022/06/24 01:29:07;;;;;;;13.45;2.65;;;42.40;25.20;;;;;;4968586;28;20047;-69
2022/06/24 01:31:34;;;;;;;11.82;2.22;;;42.40;25.20;;;;;;4969371;28;20081;-66
2022/06/24 01:34:00;;;;;;;9.73;2.45;;;42.40;25.10;;;;;;4968360;28;20342;-68
2022/06/24 01:36:27;;;;;;;12.98;2.10;;;42.30;25.50;;;;;;4971716;28;20122;-68
2022/06/24 01:38:56;;;;;;;13.38;2.20;;;42.20;24.90;;;;;;4968404;28;20702;-71
2022/06/24 01:41:23;;;;;;;11.38;2.50;;;42.20;25.10;;;;;;4968612;28;20508;-67
2022/06/24 01:43:49;;;;;;;11.35;2.35;;;42.10;25.20;;;;;;4969772;28;20038;-69
2022/06/24 01:46:16;;;;;;;4.15;2.08;;;42.00;25.30;;;;;;4969450;28;20023;-70
2022/06/24 01:48:42;;;;;;;13.93;2.40;;;42.00;25.70;;;;;;4969357;28;20054;-69
2022/06/24 01:51:12;;;;;;;12.32;2.53;;;41.90;25.50;;;;;;4953112;28;20030;-65
2022/06/24 01:53:38;;;;;;;12.75;2.30;;;41.80;25.30;;;;;;4952583;28;20035;-69
2022/06/24 01:56:04;;;;;;;15.93;2.40;;;41.70;24.60;;;;;;4952071;28;20054;-67
2022/06/24 01:58:31;;;;;;;19.00;2.78;;;41.40;24.70;;;;;;4968882;28;20707;-66
2022/06/24 02:00:57;;;;;;;22.13;3.30;;;41.30;24.40;;;;;;4970559;28;20035;-66
2022/06/24 02:03:24;;;;;;;18.52;2.92;;;41.20;24.40;;;;;;4968270;28;20031;-65
2022/06/24 02:05:52;;;;;;;29.10;3.78;;;41.10;24.90;;;;;;4968849;28;20023;-67
2022/06/24 02:08:18;;;;;;;58.72;5.03;;;41.00;24.80;;;;;;4970567;28;20485;-67
2022/06/24 02:13:30;;;;;;;36.38;3.70;;;40.80;24.50;;;;;;4970442;28;20042;-68
2022/06/24 02:16:02;;;;;;;45.33;4.45;;;40.70;24.60;;;;;;4956540;28;20027;-67
2022/06/24 02:18:33;;;;;;;34.03;4.00;;;40.50;24.50;;;;;;4953795;28;20047;-66
2022/06/24 02:21:00;;;;;;;32.35;4.15;;;40.40;25.00;;;;;;4968699;28;20787;-67
2022/06/24 02:23:27;;;;;;;30.33;3.83;;;40.30;24.80;;;;;;4971382;28;20047;-66
2022/06/24 02:25:54;;;;;;;27.45;3.70;;;40.20;24.90;;;;;;4968853;28;20034;-70
2022/06/24 02:28:21;;;;;;;21.38;3.83;;;40.10;24.90;;;;;;4968661;28;20045;-67
2022/06/24 02:30:51;;;;;;;24.63;2.95;;;40.00;25.10;;;;;;4976604;28;20482;-68
2022/06/24 02:33:17;;;;;;;30.83;4.15;;;40.00;25.10;;;;;;4975446;28;20473;-65
2022/06/24 02:35:44;;;;;;;26.73;3.40;;;39.80;24.80;;;;;;4968817;28;20534;-69
2022/06/24 02:38:10;;;;;;;20.70;3.80;;;39.80;24.90;;;;;;4968832;28;20040;-67
2022/06/24 02:40:45;;;;;;;19.38;3.00;;;39.70;24.70;;;;;;4967935;28;20041;-68
2022/06/24 02:43:14;;;;;;;17.17;2.67;;;39.70;25.00;;;;;;4968330;28;20098;-69
2022/06/24 02:45:41;;;;;;;16.25;3.20;;;39.60;24.80;;;;;;4968375;28;20033;-65
2022/06/24 02:48:11;;;;;;;22.65;2.75;;;39.40;24.80;;;;;;4968514;28;20023;-71
2022/06/24 02:50:48;;;;;;;29.48;4.22;;;39.40;25.10;;;;;;4968692;28;20047;-70
2022/06/24 02:53:15;;;;;;;30.83;4.60;;;39.20;24.90;;;;;;4969444;28;20039;-66
2022/06/24 02:55:46;;;;;;;28.27;3.75;;;39.10;25.00;;;;;;4973219;28;20094;-70
2022/06/24 02:58:14;;;;;;;31.00;4.22;;;39.00;25.10;;;;;;4969739;28;20122;-70
2022/06/24 03:00:43;;;;;;;22.45;4.07;;;39.00;25.20;;;;;;4952312;28;20047;-68
2022/06/24 03:03:14;;;;;;;20.25;3.40;;;38.90;25.00;;;;;;4967002;28;20103;-67
2022/06/24 03:05:42;;;;;;;26.92;4.60;;;38.90;25.10;;;;;;4968491;28;20046;-68
2022/06/24 03:08:09;;;;;;;21.92;3.17;;;38.90;25.30;;;;;;4972344;28;20158;-68
2022/06/24 03:10:36;;;;;;;17.77;3.75;;;38.70;25.50;;;;;;4973752;28;20037;-68
2022/06/24 03:13:03;;;;;;;16.55;3.40;;;38.60;25.90;;;;;;4971531;28;20038;-68
2022/06/24 03:15:30;;;;;;;12.88;3.15;;;38.50;25.90;;;;;;4970366;28;20099;-68
2022/06/24 03:17:57;;;;;;;18.77;3.25;;;38.50;26.00;;;;;;4970548;28;20179;-67
2022/06/24 03:20:24;;;;;;;25.05;3.88;;;38.40;25.60;;;;;;4971060;28;20128;-68
2022/06/24 03:22:50;;;;;;;16.27;3.03;;;38.30;25.50;;;;;;4955155;28;20076;-67
2022/06/24 03:25:17;;;;;;;11.05;2.47;;;38.30;25.40;;;;;;4971996;28;20067;-68
2022/06/24 03:27:43;;;;;;;12.15;2.97;;;38.30;25.50;;;;;;4968372;28;20047;-68
2022/06/24 03:30:11;;;;;;;8.55;2.40;;;38.20;25.70;;;;;;4973477;28;20042;-67
2022/06/24 03:32:38;;;;;;;10.88;2.60;;;38.20;25.70;;;;;;4969678;28;20141;-70
2022/06/24 03:35:06;;;;;;;14.95;2.72;;;38.10;25.60;;;;;;4970330;28;20049;-70
2022/06/24 03:40:04;;;;;;;10.63;2.70;;;38.00;25.60;;;;;;4955881;28;20094;-67
2022/06/24 03:42:31;;;;;;;12.23;2.80;;;38.00;25.50;;;;;;4952671;28;20130;-70
2022/06/24 03:44:57;;;;;;;14.57;2.50;;;37.90;26.00;;;;;;4954845;28;20517;-69
2022/06/24 03:47:23;;;;;;;10.52;2.38;;;37.90;25.60;;;;;;4963563;28;20138;-68
2022/06/24 03:49:53;;;;;;;12.65;2.50;;;37.80;25.50;;;;;;4958279;28;20033;-69
2022/06/24 03:52:20;;;;;;;14.95;2.60;;;37.70;25.70;;;;;;4966749;28;20562;-68
2022/06/24 03:54:46;;;;;;;7.38;2.40;;;37.70;25.80;;;;;;4953289;28;20051;-67
2022/06/24 03:57:13;;;;;;;12.98;2.55;;;37.60;26.20;;;;;;4957890;28;20048;-68
2022/06/24 03:59:39;;;;;;;9.48;2.38;;;37.50;26.40;;;;;;4940943;28;20064;-69
2022/06/24 04:02:06;;;;;;;12.48;2.83;;;37.40;26.60;;;;;;4955193;28;20080;-67
2022/06/24 04:04:32;;;;;;;11.23;2.63;;;37.30;26.30;;;;;;4953164;28;20189;-68
2022/06/24 04:06:58;;;;;;;19.00;3.00;;;37.20;26.40;;;;;;4953382;28;20048;-69
2022/06/24 04:09:25;;;;;;;20.20;3.10;;;37.10;26.40;;;;;;4968825;28;20473;-68
2022/06/24 04:11:52;;;;;;;18.35;3.53;;;37.00;26.50;;;;;;4955606;28;20109;-69
2022/06/24 04:17:04;;;;;;;21.38;3.38;;;36.90;26.50;;;;;;4954203;28;20424;-68
2022/06/24 04:19:30;;;;;;;29.35;3.72;;;36.70;26.60;;;;;;4962798;28;20067;-70
2022/06/24 04:21:57;;;;;;;21.30;3.92;;;36.60;27.00;;;;;;4955719;28;21367;-69
2022/06/24 04:24:23;;;;;;;22.48;3.85;;;36.50;26.70;;;;;;4950835;28;20069;-70
2022/06/24 04:26:49;;;;;;;31.30;4.38;;;36.50;26.70;;;;;;4964143;28;20072;-66
2022/06/24 04:29:19;;;;;;;33.67;4.57;;;36.40;26.70;;;;;;4954617;28;20047;-70
2022/06/24 04:31:45;;;;;;;23.55;5.13;;;36.30;26.70;;;;;;4936716;28;20145;-69
2022/06/24 04:34:12;;;;;;;21.17;3.90;;;36.30;26.70;;;;;;4953035;28;20128;-71
2022/06/24 04:36:38;;;;;;;30.88;5.75;;;36.30;26.70;;;;;;4952148;28;20056;-71
2022/06/24 04:39:04;;;;;;;31.25;5.30;;;36.20;26.70;;;;;;4965508;28;20107;-71
2022/06/24 04:41:31;;;;;;;31.42;5.70;;;36.20;26.80;;;;;;4962659;28;20445;-70
2022/06/24 04:43:57;;;;;;;35.60;5.28;;;36.10;26.90;;;;;;4950490;28;20139;-68
2022/06/24 04:46:24;;;;;;;34.20;4.53;;;36.10;27.00;;;;;;4964507;28;20071;-67
2022/06/24 04:48:50;;;;;;;24.65;3.90;;;36.10;27.00;;;;;;4966094;28;20479;-68
2022/06/24 04:51:16;;;;;;;28.13;3.83;;;36.00;27.00;;;;;;4950469;28;20436;-70
2022/06/24 04:53:43;;;;;;;17.38;3.17;;;35.90;27.00;;;;;;4950805;28;20058;-69
2022/06/24 04:56:12;;;;;;;18.70;3.47;;;35.90;27.00;;;;;;4958789;28;20530;-69
2022/06/24 04:58:38;;;;;;;21.25;2.50;;;35.90;27.20;;;;;;4935201;28;20090;-72
2022/06/24 05:01:08;;;;;;;24.85;2.10;;;35.70;27.20;;;;;;4950715;28;20060;-67
2022/06/24 05:03:35;;;;;;;14.30;3.03;;;35.60;27.50;;;;;;4951225;28;20093;-70
2022/06/24 05:06:01;;;;;;;10.05;2.35;;;35.60;27.60;;;;;;4959954;28;20062;-69
2022/06/24 05:08:30;;;;;;;17.80;2.30;;;35.60;27.80;;;;;;4984874;28;20513;-67
2022/06/24 05:11:01;;;;;;;12.30;2.53;;;35.50;28.10;;;;;;4982275;28;20501;-71
2022/06/24 05:13:27;;;;;;;20.40;2.60;;;35.50;28.00;;;;;;4949967;28;20068;-68
2022/06/24 05:15:54;;;;;;;10.60;2.20;;;35.50;28.20;;;;;;4951529;28;20062;-68
2022/06/24 05:18:20;;;;;;;15.63;2.33;;;35.40;28.30;;;;;;4951392;28;20098;-68
2022/06/24 05:20:47;;;;;;;19.25;2.60;;;35.40;28.40;;;;;;4949668;28;20057;-68
2022/06/24 05:23:13;;;;;;;19.50;2.60;;;35.40;28.50;;;;;;4948906;28;20063;-69
2022/06/24 05:25:39;;;;;;;14.25;2.30;;;35.30;28.60;;;;;;4948018;28;20509;-67
2022/06/24 05:28:06;;;;;;;18.42;2.75;;;35.40;28.40;;;;;;4947504;28;20409;-68
2022/06/24 05:30:32;;;;;;;20.38;3.88;;;35.30;28.50;;;;;;4951295;28;20075;-68
2022/06/24 05:32:58;;;;;;;19.50;2.50;;;35.30;28.80;;;;;;4949108;28;20080;-69
2022/06/24 05:35:25;;;;;;;20.92;3.03;;;35.20;28.90;;;;;;4949570;28;20427;-69
2022/06/24 05:37:51;;;;;;;15.25;2.13;;;35.10;29.10;;;;;;4951877;28;20062;-68
2022/06/24 05:40:18;;;;;;;10.07;1.90;;;35.10;29.30;;;;;;4950188;28;20075;-67
2022/06/24 05:42:44;;;;;;;8.60;1.95;;;35.00;29.60;;;;;;4949927;28;20535;-68
2022/06/24 05:45:11;;;;;;;9.52;2.00;;;34.90;29.60;;;;;;4949954;28;20522;-69
2022/06/24 05:47:38;;;;;;;9.70;2.05;;;34.80;29.60;;;;;;4949823;28;20593;-68
2022/06/24 05:50:05;;;;;;;9.93;1.77;;;34.70;29.80;;;;;;4949744;28;20200;-70
2022/06/24 05:55:16;;;;;;;10.13;2.45;;;34.60;29.70;;;;;;4951060;28;20067;-68
2022/06/24 05:57:42;;;;;;;12.55;2.00;;;34.60;29.90;;;;;;4965637;28;20070;-70
2022/06/24 06:00:09;;;;;;;19.40;2.10;;;34.50;30.00;;;;;;4950405;28;20214;-69
2022/06/24 06:02:36;;;;;;;15.90;2.38;;;34.50;29.90;;;;;;4951074;28;20069;-68
2022/06/24 06:05:02;;;;;;;11.25;1.77;;;34.50;29.90;;;;;;4949502;28;20555;-71
2022/06/24 06:07:29;;;;;;;15.98;2.13;;;34.50;29.90;;;;;;4950611;28;20433;-68
2022/06/24 06:09:56;;;;;;;17.80;2.25;;;34.50;29.80;;;;;;4948292;28;20063;-70
2022/06/24 06:12:23;;;;;;;14.32;2.03;;;34.50;29.90;;;;;;4965478;28;20061;-71
2022/06/24 06:14:49;;;;;;;11.23;2.13;;;34.60;29.90;;;;;;4949645;28;20432;-69
2022/06/24 06:17:15;;;;;;;12.68;2.10;;;34.60;29.90;;;;;;4950145;28;20095;-68
2022/06/24 06:19:42;;;;;;;19.27;2.28;;;34.60;30.00;;;;;;4964635;28;20074;-67
2022/06/24 06:22:08;;;;;;;9.48;1.88;;;34.60;30.00;;;;;;4964045;28;20085;-68
2022/06/24 06:24:34;;;;;;;6.80;2.03;;;34.50;30.10;;;;;;4962650;28;20092;-71
2022/06/24 06:27:01;;;;;;;9.23;1.83;;;34.40;30.30;;;;;;4949920;28;20069;-70
2022/06/24 06:29:27;;;;;;;8.45;2.13;;;34.40;30.20;;;;;;4949901;28;20064;-69
2022/06/24 06:31:55;;;;;;;12.52;1.92;;;34.40;30.30;;;;;;4933604;28;20078;-69
2022/06/24 06:34:21;;;;;;;12.95;1.88;;;34.40;30.30;;;;;;4948858;28;20075;-67
2022/06/24 06:36:50;;;;;;;7.72;1.77;;;34.30;30.10;;;;;;4949857;28;20065;-69
2022/06/24 06:39:17;;;;;;;12.23;1.98;;;34.30;30.20;;;;;;4948900;28;20103;-69
2022/06/24 06:41:46;;;;;;;11.48;2.17;;;34.40;30.00;;;;;;4966231;28;20168;-68
2022/06/24 06:44:15;;;;;;;6.40;2.00;;;34.40;30.00;;;;;;4964075;28;20430;-70
2022/06/24 06:46:42;;;;;;;8.93;1.80;;;34.30;30.00;;;;;;4936358;28;20060;-70
2022/06/24 06:49:09;;;;;;;2.88;1.42;;;34.40;29.90;;;;;;4967636;28;20070;-69
2022/06/24 06:51:35;;;;;;;7.13;1.95;;;34.30;29.90;;;;;;4956650;28;20526;-69
2022/06/24 06:54:02;;;;;;;7.00;1.80;;;34.40;30.00;;;;;;4952782;28;20526;-69
2022/06/24 06:56:28;;;;;;;7.10;1.80;;;34.30;30.20;;;;;;4952621;28;20082;-67
2022/06/24 06:58:54;;;;;;;9.30;2.13;;;34.20;30.60;;;;;;4952736;28;20068;-67
2022/06/24 07:01:21;;;;;;;6.22;1.90;;;34.10;30.80;;;;;;4952660;28;20089;-66
2022/06/24 07:03:47;;;;;;;7.68;1.85;;;34.00;30.90;;;;;;4953137;28;20168;-68
2022/06/24 07:06:14;;;;;;;9.00;1.95;;;34.00;30.80;;;;;;4952447;28;20201;-68
2022/06/24 07:08:40;;;;;;;7.10;1.90;;;33.90;30.80;;;;;;4952239;28;20429;-69
2022/06/24 07:11:07;;;;;;;8.48;1.80;;;33.90;31.00;;;;;;4952558;28;20105;-68
2022/06/24 07:13:33;;;;;;;11.63;2.13;;;33.90;31.20;;;;;;4966833;28;20065;-69
2022/06/24 07:15:59;;;;;;;7.00;1.75;;;33.80;31.10;;;;;;4951732;28;20115;-69
2022/06/24 07:18:26;;;;;;;8.52;1.83;;;33.80;31.60;;;;;;4952372;28;20059;-66
2022/06/24 07:20:52;;;;;;;5.65;1.65;;;33.70;32.00;;;;;;4952391;28;20062;-70
2022/06/24 07:23:18;;;;;;;10.55;1.95;;;33.60;32.10;;;;;;4951095;28;20070;-70
2022/06/24 07:25:45;;;;;;;6.57;1.88;;;33.60;31.90;;;;;;4954729;28;20203;-70
2022/06/24 07:28:11;;;;;;;5.43;1.90;;;33.50;31.90;;;;;;4966177;28;20081;-68
2022/06/24 07:30:37;;;;;;;4.93;1.80;;;33.40;32.30;;;;;;4953675;28;20063;-68
2022/06/24 07:33:04;;;;;;;6.78;2.17;;;33.30;32.00;;;;;;4936247;28;20532;-69
2022/06/24 07:35:30;;;;;;;7.03;1.80;;;33.30;31.90;;;;;;4952050;28;20104;-68
2022/06/24 07:37:57;;;;;;;4.32;2.03;;;33.30;31.60;;;;;;4952595;28;20192;-72
2022/06/24 07:40:25;;;;;;;13.80;2.05;;;33.30;31.40;;;;;;4951653;28;20731;-68
2022/06/24 07:42:51;;;;;;;5.32;1.70;;;33.30;31.30;;;;;;4954755;28;20057;-66
2022/06/24 07:45:18;;;;;;;10.68;2.38;;;33.30;31.10;;;;;;4953637;28;20097;-67
2022/06/24 07:47:44;;;;;;;8.98;1.70;;;33.40;30.90;;;;;;4952662;28;20062;-72
2022/06/24 07:50:11;;;;;;;6.60;1.88;;;33.40;31.00;;;;;;4951469;28;20063;-69
2022/06/24 07:52:37;;;;;;;6.68;1.70;;;33.40;31.10;;;;;;4951685;28;20060;-71
2022/06/24 07:57:49;;;;;;;7.03;1.58;;;33.30;31.60;;;;;;4953599;28;20136;-69
2022/06/24 08:00:16;;;;;;;6.80;2.20;;;33.30;32.00;;;;;;4952405;28;20074;-71
2022/06/24 08:02:42;;;;;;;5.97;1.80;;;33.20;32.10;;;;;;4949945;28;20429;-69
2022/06/24 08:05:09;;;;;;;12.68;1.83;;;33.10;32.30;;;;;;4952781;28;20141;-69
2022/06/24 08:07:35;;;;;;;7.85;1.60;;;33.00;32.50;;;;;;4952133;28;20088;-72
2022/06/24 08:10:01;;;;;;;5.78;1.80;;;33.00;32.60;;;;;;4966381;28;20148;-71
2022/06/24 08:12:28;;;;;;;5.00;1.70;;;32.90;33.00;;;;;;4951598;28;20063;-70
2022/06/24 08:14:54;;;;;;;5.50;1.65;;;32.80;33.10;;;;;;4952392;28;20086;-71
2022/06/24 08:17:21;;;;;;;4.93;1.75;;;32.80;33.20;;;;;;4952395;28;20100;-71
2022/06/24 08:19:47;;;;;;;6.80;1.85;;;32.80;32.90;;;;;;4952074;28;20994;-71
2022/06/24 08:22:13;;;;;;;6.30;1.70;;;32.80;32.90;;;;;;4952191;28;20071;-70
2022/06/24 08:24:40;;;;;;;8.52;1.83;;;32.70;33.00;;;;;;4951117;28;20086;-69
2022/06/24 08:27:07;;;;;;;6.32;1.65;;;32.80;32.50;;;;;;4952175;28;20061;-70
2022/06/24 08:29:33;;;;;;;7.20;1.98;;;32.80;32.30;;;;;;4936703;28;20077;-71
2022/06/24 08:32:00;;;;;;;4.15;1.60;;;32.80;32.20;;;;;;4951980;28;20160;-71
2022/06/24 08:34:26;;;;;;;5.57;1.80;;;32.80;32.10;;;;;;4950688;28;20081;-69
2022/06/24 08:36:53;;;;;;;9.75;1.63;;;32.80;32.10;;;;;;4950645;28;20095;-71
2022/06/24 08:39:19;;;;;;;5.50;1.50;;;32.90;32.20;;;;;;4951180;28;20164;-72
2022/06/24 08:41:47;;;;;;;7.50;1.63;;;32.90;31.80;;;;;;4952209;28;20171;-71
2022/06/24 08:44:13;;;;;;;9.52;1.85;;;32.90;32.00;;;;;;4954570;28;20081;-72
2022/06/24 08:46:40;;;;;;;6.18;1.58;;;32.90;31.60;;;;;;4950637;28;20515;-68
2022/06/24 08:49:07;;;;;;;4.55;1.30;;;32.90;31.60;;;;;;4951239;28;20070;-71
2022/06/24 08:51:37;;;;;;;4.63;1.48;;;32.90;31.70;;;;;;4950979;28;20086;-70
2022/06/24 08:54:04;;;;;;;5.20;1.60;;;32.90;31.60;;;;;;4951752;28;20106;-68
2022/06/24 08:56:30;;;;;;;5.53;1.27;;;32.90;31.90;;;;;;4956330;28;20069;-70
2022/06/24 08:58:58;;;;;;;5.40;1.63;;;32.90;31.90;;;;;;4950169;28;20107;-70
2022/06/24 09:01:24;;;;;;;9.27;1.50;;;32.90;31.80;;;;;;4966341;28;20114;-69
2022/06/24 09:03:50;;;;;;;4.55;1.83;;;32.90;32.00;;;;;;4979631;28;20180;-71
2022/06/24 09:06:17;;;;;;;5.93;1.52;;;32.90;31.90;;;;;;4956011;28;21449;-71
2022/06/24 09:08:53;;;;;;;5.68;1.45;;;32.90;31.30;;;;;;4962889;28;20080;-70
2022/06/24 09:11:20;;;;;;;2.97;1.50;;;33.00;30.90;;;;;;4950754;28;20064;-72
2022/06/24 09:13:48;;;;;;;3.60;1.52;;;33.00;30.90;;;;;;4952375;28;20091;-70
2022/06/24 09:16:18;;;;;;;4.95;1.92;;;33.00;30.90;;;;;;4966723;28;20070;-71
2022/06/24 09:18:57;;;;;;;4.50;1.60;;;33.00;30.80;;;;;;4950706;28;20171;-71
2022/06/24 09:21:28;;;;;;;4.93;1.60;;;33.10;30.80;;;;;;4951328;28;20100;-69
2022/06/24 09:24:05;;;;;;;9.27;1.90;;;33.10;30.60;;;;;;4950827;28;20091;-70
2022/06/24 09:26:37;;;;;;;4.78;1.35;;;33.00;30.80;;;;;;4956515;28;20539;-71
2022/06/24 09:29:07;;;;;;;7.45;1.63;;;33.00;30.70;;;;;;4966995;28;20065;-70
2022/06/24 09:31:34;;;;;;;4.18;1.77;;;33.00;30.80;;;;;;4951741;28;20063;-71
2022/06/24 09:34:11;;;;;;;7.97;1.60;;;33.00;30.70;;;;;;4949891;28;20491;-71
2022/06/24 09:36:39;;;;;;;3.55;1.20;;;33.00;30.80;;;;;;4966396;28;20078;-73
2022/06/24 09:39:08;;;;;;;6.38;1.40;;;32.90;30.90;;;;;;4952552;28;20112;-71
2022/06/24 09:41:49;;;;;;;2.92;1.52;;;32.90;31.00;;;;;;4951424;28;20072;-72
2022/06/24 09:44:16;;;;;;;6.43;1.33;;;32.90;30.90;;;;;;4948850;28;20089;-71
2022/06/24 09:46:43;;;;;;;8.40;1.50;;;32.90;30.90;;;;;;4949446;28;20586;-71
2022/06/24 09:49:15;;;;;;;5.30;1.92;;;32.90;30.80;;;;;;4950981;28;20074;-73
2022/06/24 09:51:44;;;;;;;5.60;1.52;;;32.90;30.90;;;;;;4983396;28;20473;-69
2022/06/24 09:54:12;;;;;;;3.67;1.58;;;32.90;30.90;;;;;;4950306;28;20429;-70
2022/06/24 09:56:40;;;;;;;8.93;1.60;;;32.90;31.30;;;;;;4957876;28;20068;-70
2022/06/24 10:01:52;;;;;;;3.65;1.25;;;32.80;31.60;;;;;;4950538;28;20111;-71
2022/06/24 10:04:20;;;;;;;6.88;2.00;;;32.80;32.60;;;;;;4963296;28;20454;-67
2022/06/24 10:06:49;;;;;;;9.98;1.75;;;32.50;34.10;;;;;;4949291;28;20113;-73
2022/06/24 10:09:20;;;;;;;5.43;1.55;;;32.30;34.60;;;;;;4934627;28;20543;-71
2022/06/24 10:11:50;;;;;;;6.22;1.88;;;32.10;34.80;;;;;;4934051;28;20104;-71
2022/06/24 10:14:16;;;;;;;8.55;1.85;;;32.00;35.20;;;;;;4918365;28;20557;-71
2022/06/24 10:16:44;;;;;;;7.53;2.10;;;31.80;35.80;;;;;;4964404;28;20084;-73
2022/06/24 10:19:12;;;;;;;7.90;1.52;;;31.80;36.00;;;;;;4952867;28;20131;-72
2022/06/24 10:21:40;;;;;;;10.15;1.60;;;31.70;35.50;;;;;;4951160;28;20565;-71
2022/06/24 10:24:14;;;;;;;6.60;1.80;;;31.60;35.50;;;;;;4964681;28;20121;-72
2022/06/24 10:26:47;;;;;;;8.07;1.60;;;31.40;35.40;;;;;;4950153;28;20096;-70
2022/06/24 10:29:14;;;;;;;4.15;1.58;;;31.30;35.90;;;;;;4949298;28;20063;-70
2022/06/24 10:31:49;;;;;;;3.88;1.88;;;31.40;35.70;;;;;;4949273;28;20164;-71
2022/06/24 10:34:31;;;;;;;5.40;1.80;;;31.40;35.30;;;;;;4964297;28;20457;-72
2022/06/24 10:37:03;;;;;;;7.13;1.70;;;31.30;34.90;;;;;;4949854;28;20069;-75
2022/06/24 10:39:47;;;;;;;5.10;1.50;;;31.20;35.50;;;;;;4950294;28;20124;-73
2022/06/24 10:42:14;;;;;;;3.60;1.40;;;31.20;35.10;;;;;;4949686;28;20096;-73
2022/06/24 10:44:59;;;;;;;4.95;1.67;;;31.30;35.00;;;;;;4947279;28;20506;-71
2022/06/24 10:47:28;;;;;;;3.85;1.58;;;31.20;34.90;;;;;;4948899;28;20076;-74
2022/06/24 10:49:55;;;;;;;8.13;1.60;;;31.30;34.70;;;;;;4948878;28;20563;-70
2022/06/24 10:52:33;;;;;;;4.85;1.73;;;31.20;34.60;;;;;;4949831;28;20078;-73
2022/06/24 10:55:20;;;;;;;6.55;1.73;;;31.20;34.90;;;;;;4949397;28;20075;-71
2022/06/24 10:57:56;;;;;;;4.45;1.30;;;31.20;34.80;;;;;;4949185;28;20128;-70
2022/06/24 11:00:25;;;;;;;5.88;1.60;;;31.10;35.10;;;;;;4949926;28;20075;-70
2022/06/24 11:02:57;;;;;;;4.25;1.48;;;31.10;35.30;;;;;;4933260;28;20414;-72
2022/06/24 11:05:28;;;;;;;5.68;1.48;;;31.00;35.00;;;;;;4945953;28;20091;-71
2022/06/24 11:07:55;;;;;;;3.05;1.50;;;31.00;35.00;;;;;;4948484;28;20080;-73
2022/06/24 11:10:24;;;;;;;4.72;1.40;;;30.90;35.00;;;;;;4949831;28;20521;-71
2022/06/24 11:12:58;;;;;;;4.57;1.50;;;30.90;35.10;;;;;;4980238;28;20540;-74
2022/06/24 11:15:39;;;;;;;4.90;1.52;;;30.90;35.10;;;;;;4933013;28;20107;-71
2022/06/24 11:18:10;;;;;;;8.07;1.60;;;30.90;35.40;;;;;;4949265;28;20112;-72
2022/06/24 11:20:42;;;;;;;7.93;1.83;;;30.90;35.30;;;;;;4963589;28;20119;-70
2022/06/24 11:23:10;;;;;;;3.92;1.30;;;30.90;35.10;;;;;;4949017;28;20852;-71
2022/06/24 11:25:39;;;;;;;8.15;1.85;;;30.80;35.20;;;;;;4950119;28;20086;-73
2022/06/24 11:28:22;;;;;;;7.13;1.40;;;30.80;35.20;;;;;;4951729;28;20068;-71
2022/06/24 11:30:50;;;;;;;7.90;1.77;;;30.80;35.50;;;;;;4958069;28;20073;-70
2022/06/24 11:33:17;;;;;;;8.57;1.45;;;30.80;35.20;;;;;;4953785;28;20086;-67
2022/06/24 11:35:45;;;;;;;5.70;1.40;;;30.80;35.30;;;;;;4952508;28;20159;-74
2022/06/24 11:38:11;;;;;;;4.25;1.30;;;30.80;35.00;;;;;;4952611;28;20115;-71
2022/06/24 11:40:40;;;;;;;5.70;1.67;;;30.80;34.80;;;;;;4954578;28;20076;-69
2022/06/24 11:43:09;;;;;;;2.83;1.15;;;30.80;35.30;;;;;;4952948;28;20119;-73
2022/06/24 11:45:47;;;;;;;3.38;1.45;;;30.70;35.20;;;;;;4936535;28;20088;-69
2022/06/24 11:48:22;;;;;;;5.20;1.50;;;30.70;35.50;;;;;;4920853;28;20430;-71
2022/06/24 11:50:49;;;;;;;7.57;1.73;;;30.70;35.40;;;;;;4953264;28;20110;-68
2022/06/24 11:53:16;;;;;;;5.05;1.58;;;30.70;35.40;;;;;;4959441;28;20091;-69
2022/06/24 11:55:49;;;;;;;7.70;1.85;;;30.60;35.00;;;;;;4950652;28;20184;-71
2022/06/24 11:58:18;;;;;;;7.75;1.50;;;30.70;35.00;;;;;;4967358;28;20448;-70
2022/06/24 12:00:45;;;;;;;8.27;1.77;;;30.60;35.60;;;;;;4952276;28;20083;-68
2022/06/24 12:03:13;;;;;;;3.28;1.63;;;30.60;35.10;;;;;;4951823;28;20069;-67
2022/06/24 12:05:42;;;;;;;9.80;2.10;;;30.50;35.60;;;;;;4952545;28;20447;-71
2022/06/24 12:08:09;;;;;;;6.35;1.50;;;30.60;35.90;;;;;;4950590;28;20407;-72
2022/06/24 12:10:47;;;;;;;7.75;1.77;;;30.50;35.70;;;;;;4951849;28;20069;-71
2022/06/24 12:13:25;;;;;;;10.75;2.00;;;30.50;36.10;;;;;;4951286;28;20157;-68
2022/06/24 12:15:52;;;;;;;4.60;1.65;;;30.50;35.80;;;;;;4952966;28;20067;-71
2022/06/24 12:18:22;;;;;;;5.65;1.70;;;30.50;35.80;;;;;;4951432;28;20100;-71
2022/06/24 12:21:06;;;;;;;9.20;1.70;;;30.50;36.10;;;;;;4951067;28;20140;-70
2022/06/24 12:23:48;;;;;;;12.15;1.63;;;30.50;35.90;;;;;;4950832;28;20070;-71
2022/06/24 12:26:20;;;;;;;6.85;1.48;;;30.40;36.30;;;;;;4951044;28;20432;-70
2022/06/24 12:29:03;;;;;;;7.82;2.00;;;30.40;36.00;;;;;;4952133;28;20164;-72
2022/06/24 12:31:30;;;;;;;9.20;1.73;;;30.40;35.50;;;;;;4956521;28;20581;-74
2022/06/24 12:33:57;;;;;;;10.30;2.00;;;30.40;35.80;;;;;;4951730;28;20095;-69
2022/06/24 12:36:35;;;;;;;8.23;2.03;;;30.40;35.90;;;;;;4953185;28;20553;-70
2022/06/24 12:39:10;;;;;;;5.68;1.70;;;30.40;35.60;;;;;;4952636;28;20126;-72
2022/06/24 12:41:45;;;;;;;9.48;1.63;;;30.40;35.50;;;;;;4952264;28;20513;-73
2022/06/24 12:44:11;;;;;;;9.20;1.98;;;30.40;35.50;;;;;;4950547;28;20210;-67
2022/06/24 12:50:34;;;;;;;11.18;2.25;;;30.50;35.50;;;;;;4952355;28;20083;-69
2022/06/24 12:52:11;;;;;;;6.13;1.75;;;30.50;35.50;;;;;;4952074;28;20115;-70
2022/06/24 12:54:37;;;;;;;6.72;1.60;;;30.50;35.60;;;;;;4951901;28;20686;-68
2022/06/24 12:57:04;;;;;;;11.55;1.40;;;30.60;35.20;;;;;;4965778;28;20079;-71
2022/06/24 12:59:30;;;;;;;3.70;1.52;;;30.60;34.90;;;;;;4952298;28;20099;-70
2022/06/24 13:01:57;;;;;;;6.90;1.83;;;30.60;35.10;;;;;;4950802;28;20107;-69
2022/06/24 13:04:23;;;;;;;5.68;1.35;;;30.60;35.20;;;;;;4952720;28;20551;-71
2022/06/24 13:06:50;;;;;;;17.05;2.58;;;30.60;34.70;;;;;;4965001;28;20179;-70
2022/06/24 13:09:16;;;;;;;31.50;3.75;;;30.60;34.70;;;;;;4948727;28;20392;-70